Time;durP1;ratioP1;P1;durP2;ratioP2;P2;SDS_P1;SDS_P2;PMS_P1;PMS_P2;Temp;Humidity;BMP_temperature;BMP_pressure;BME280_temperature;BME280_humidity;BME280_pressure;Samples;Min_cycle;Max_cycle;Signal;HPM_P1;HPM_P2
2022/04/17 00:02:18;;;;;;;3.45;1.23;;;9.20;63.20;;;;;;5092639;28;20032;-78
2022/04/17 00:04:44;;;;;;;2.63;1.40;;;9.10;63.90;;;;;;5093887;28;20046;-78
2022/04/17 00:07:09;;;;;;;2.95;1.55;;;9.10;64.40;;;;;;5092074;28;20028;-78
2022/04/17 00:09:35;;;;;;;2.15;1.20;;;9.10;64.50;;;;;;5092873;28;20077;-78
2022/04/17 00:12:01;;;;;;;3.28;1.40;;;9.10;64.50;;;;;;5092063;28;20034;-78
2022/04/17 00:14:27;;;;;;;2.58;1.42;;;9.10;65.10;;;;;;5093654;28;20020;-77
2022/04/17 00:16:55;;;;;;;2.60;1.50;;;9.00;65.00;;;;;;5092379;28;20020;-79
2022/04/17 00:19:21;;;;;;;1.77;1.50;;;9.00;64.70;;;;;;5092475;28;20028;-78
2022/04/17 00:21:48;;;;;;;1.80;1.33;;;9.00;65.90;;;;;;5092552;28;20032;-78
2022/04/17 00:24:15;;;;;;;3.13;1.48;;;8.90;65.70;;;;;;5092137;28;20119;-78
2022/04/17 00:26:41;;;;;;;1.73;1.40;;;8.90;66.30;;;;;;5092341;28;20026;-78
2022/04/17 00:29:07;;;;;;;5.13;1.65;;;8.90;65.80;;;;;;5093135;28;20036;-78
2022/04/17 00:31:33;;;;;;;3.85;1.40;;;8.90;66.60;;;;;;5092341;28;20032;-78
2022/04/17 00:33:58;;;;;;;3.38;2.10;;;8.90;66.40;;;;;;5092076;28;20032;-77
2022/04/17 00:36:24;;;;;;;4.55;1.90;;;8.80;67.20;;;;;;5092378;28;20081;-78
2022/04/17 00:38:50;;;;;;;1.92;1.40;;;8.90;67.30;;;;;;5092571;28;20024;-78
2022/04/17 00:41:15;;;;;;;5.10;1.52;;;8.80;67.70;;;;;;5091874;28;20506;-78
2022/04/17 00:43:46;;;;;;;4.72;1.60;;;8.70;67.50;;;;;;5092149;28;20024;-78
2022/04/17 00:46:12;;;;;;;3.97;1.63;;;8.70;67.50;;;;;;5091823;28;20422;-78
2022/04/17 00:48:37;;;;;;;2.95;1.50;;;8.70;68.10;;;;;;5091974;28;20024;-78
2022/04/17 00:51:05;;;;;;;1.60;1.30;;;8.70;67.80;;;;;;5092789;28;20461;-78
2022/04/17 00:53:31;;;;;;;3.05;1.80;;;8.70;68.50;;;;;;5096948;28;20028;-78
2022/04/17 00:55:57;;;;;;;1.88;1.42;;;8.60;68.10;;;;;;5095633;28;20048;-77
2022/04/17 00:58:24;;;;;;;2.47;1.50;;;8.60;68.60;;;;;;5097406;28;20373;-78
2022/04/17 01:00:50;;;;;;;2.50;1.52;;;8.60;69.00;;;;;;5097378;28;20097;-78
2022/04/17 01:03:17;;;;;;;4.20;1.67;;;8.60;69.40;;;;;;5096050;28;20590;-78
2022/04/17 01:05:44;;;;;;;4.40;1.77;;;8.60;70.10;;;;;;5096481;28;20035;-78
2022/04/17 01:08:11;;;;;;;2.58;1.70;;;8.60;70.50;;;;;;5095847;28;20082;-78
2022/04/17 01:10:37;;;;;;;1.80;1.50;;;8.60;70.50;;;;;;5097278;28;20419;-78
2022/04/17 01:13:04;;;;;;;3.30;1.80;;;8.60;70.30;;;;;;5095698;28;20031;-78
2022/04/17 01:15:30;;;;;;;2.90;1.42;;;8.60;70.90;;;;;;5095956;28;20031;-78
2022/04/17 01:17:56;;;;;;;4.93;1.48;;;8.50;71.10;;;;;;5096083;28;20024;-78
2022/04/17 01:20:22;;;;;;;2.88;1.77;;;8.40;72.00;;;;;;5095597;28;20039;-78
2022/04/17 01:22:49;;;;;;;3.08;1.65;;;8.40;72.40;;;;;;5096040;28;20028;-78
2022/04/17 01:28:01;;;;;;;2.30;1.67;;;8.40;72.30;;;;;;5096322;28;20082;-78
2022/04/17 01:30:27;;;;;;;3.47;1.70;;;8.40;71.60;;;;;;5096970;28;20526;-78
2022/04/17 01:32:53;;;;;;;3.03;1.80;;;8.40;72.70;;;;;;5096987;28;20020;-78
2022/04/17 01:35:18;;;;;;;4.40;1.83;;;8.30;73.20;;;;;;5095226;28;20147;-78
2022/04/17 01:37:48;;;;;;;2.83;1.73;;;8.20;73.60;;;;;;5097274;28;20034;-78
2022/04/17 01:40:13;;;;;;;2.03;1.60;;;8.20;74.00;;;;;;5095122;28;20039;-78
2022/04/17 01:42:39;;;;;;;2.63;1.60;;;8.20;74.20;;;;;;5095658;28;20024;-78
2022/04/17 01:45:05;;;;;;;4.15;1.42;;;8.10;75.10;;;;;;5095233;28;20028;-78
2022/04/17 01:47:31;;;;;;;3.00;1.70;;;8.10;75.00;;;;;;5096880;28;20026;-77
2022/04/17 01:49:56;;;;;;;2.63;1.80;;;8.10;75.40;;;;;;5095357;28;20024;-77
2022/04/17 01:52:22;;;;;;;3.00;1.80;;;8.10;75.90;;;;;;5095063;28;20020;-78
2022/04/17 01:54:48;;;;;;;3.17;1.80;;;8.00;75.40;;;;;;5095181;28;20388;-78
2022/04/17 01:57:14;;;;;;;4.22;2.00;;;8.00;75.60;;;;;;5094499;28;20051;-78
2022/04/17 01:59:39;;;;;;;3.33;1.80;;;8.00;74.90;;;;;;5095416;28;20032;-79
2022/04/17 02:02:05;;;;;;;3.47;1.60;;;8.00;75.50;;;;;;5095453;28;20024;-79
2022/04/17 02:04:35;;;;;;;4.55;1.80;;;8.00;75.80;;;;;;5094861;28;20363;-78
2022/04/17 02:07:04;;;;;;;2.53;1.77;;;8.00;74.70;;;;;;5096310;28;20028;-78
2022/04/17 02:09:30;;;;;;;3.20;1.80;;;8.00;75.70;;;;;;5096238;28;20028;-78
2022/04/17 02:11:56;;;;;;;5.90;2.10;;;7.90;77.20;;;;;;5095360;28;20024;-78
2022/04/17 02:14:22;;;;;;;4.25;1.85;;;7.90;77.00;;;;;;5095569;28;20035;-77
2022/04/17 02:16:48;;;;;;;3.92;2.00;;;7.90;77.00;;;;;;5095060;28;20156;-78
2022/04/17 02:19:14;;;;;;;2.78;1.88;;;7.90;76.30;;;;;;5094749;28;20558;-78
2022/04/17 02:21:39;;;;;;;3.67;1.95;;;7.90;77.20;;;;;;5094488;28;20081;-78
2022/04/17 02:24:06;;;;;;;3.20;2.28;;;7.90;76.70;;;;;;5094955;28;20028;-78
2022/04/17 02:26:32;;;;;;;3.30;1.80;;;7.90;77.30;;;;;;5095325;28;20073;-78
2022/04/17 02:28:59;;;;;;;3.25;1.80;;;7.90;78.00;;;;;;5094498;28;20043;-78
2022/04/17 02:31:26;;;;;;;2.72;1.85;;;7.80;78.80;;;;;;5095490;28;20464;-78
2022/04/17 02:33:52;;;;;;;3.90;2.10;;;7.70;79.20;;;;;;5094249;28;20073;-78
2022/04/17 02:36:19;;;;;;;4.07;2.00;;;7.70;78.40;;;;;;5095139;28;20031;-78
2022/04/17 02:38:45;;;;;;;3.60;1.85;;;7.70;79.60;;;;;;5094604;28;20028;-78
2022/04/17 02:41:11;;;;;;;4.72;1.90;;;7.60;78.80;;;;;;5094978;28;20085;-78
2022/04/17 02:43:36;;;;;;;4.72;2.13;;;7.60;80.00;;;;;;5094665;28;20020;-78
2022/04/17 02:46:02;;;;;;;4.78;1.73;;;7.60;79.60;;;;;;5093946;28;20024;-78
2022/04/17 02:48:27;;;;;;;2.33;1.70;;;7.60;80.90;;;;;;5094399;28;20465;-78
2022/04/17 02:50:55;;;;;;;3.10;1.77;;;7.50;81.00;;;;;;5095630;28;20027;-78
2022/04/17 02:53:21;;;;;;;4.75;1.90;;;7.50;81.80;;;;;;5093912;28;20024;-78
2022/04/17 02:55:47;;;;;;;1.73;1.52;;;7.50;80.60;;;;;;5095189;28;20058;-77
2022/04/17 02:58:14;;;;;;;3.15;1.80;;;7.50;81.70;;;;;;5094920;28;20028;-78
2022/04/17 03:05:36;;;;;;;2.72;2.00;;;7.50;83.20;;;;;;5094619;28;20044;-77
2022/04/17 03:06:10;;;;;;;3.57;1.93;;;7.40;82.20;;;;;;5094148;28;20073;-78
2022/04/17 03:08:39;;;;;;;3.53;2.25;;;7.40;82.40;;;;;;5095157;28;20016;-78
2022/04/17 03:11:04;;;;;;;3.75;2.20;;;7.40;82.10;;;;;;5093398;28;20071;-78
2022/04/17 03:13:31;;;;;;;2.17;1.60;;;7.40;82.90;;;;;;5094039;28;20024;-78
2022/04/17 03:15:56;;;;;;;2.10;1.70;;;7.40;84.00;;;;;;5093467;28;20031;-78
2022/04/17 03:18:22;;;;;;;3.35;1.75;;;7.40;84.50;;;;;;5093043;28;20020;-78
2022/04/17 03:20:48;;;;;;;3.67;1.95;;;7.30;85.20;;;;;;5094874;28;20040;-78
2022/04/17 03:23:14;;;;;;;2.88;1.67;;;7.30;85.60;;;;;;5093006;28;20070;-78
2022/04/17 03:25:40;;;;;;;3.08;1.70;;;7.30;86.20;;;;;;5094601;28;20028;-78
2022/04/17 03:28:06;;;;;;;4.55;2.40;;;7.20;86.20;;;;;;5094046;28;20028;-78
2022/04/17 03:30:32;;;;;;;2.45;1.70;;;7.10;87.40;;;;;;5093034;28;20157;-78
2022/04/17 03:32:59;;;;;;;2.55;1.90;;;7.00;88.20;;;;;;5093515;28;20028;-78
2022/04/17 03:35:25;;;;;;;4.65;1.75;;;7.00;87.80;;;;;;5093345;28;20547;-78
2022/04/17 03:37:51;;;;;;;3.07;1.90;;;7.00;86.80;;;;;;5093816;28;20024;-78
2022/04/17 03:40:16;;;;;;;2.00;1.52;;;7.00;86.20;;;;;;5093992;28;20036;-78
2022/04/17 03:42:42;;;;;;;2.63;1.95;;;7.00;86.70;;;;;;5094616;28;20457;-78
2022/04/17 03:45:14;;;;;;;2.08;1.60;;;7.00;88.10;;;;;;5092751;28;20084;-78
2022/04/17 03:47:40;;;;;;;;;;;7.00;87.70;;;;;;5093919;28;20036;-78
2022/04/17 03:50:06;;;;;;;2.83;1.85;;;7.00;90.10;;;;;;5094338;28;20008;-79
2022/04/17 03:52:42;;;;;;;4.22;1.95;;;6.90;89.80;;;;;;5093129;28;20069;-78
2022/04/17 03:55:08;;;;;;;2.63;1.80;;;6.90;90.10;;;;;;5092824;28;20024;-79
2022/04/17 03:57:34;;;;;;;4.73;1.77;;;6.80;90.40;;;;;;5094028;28;20508;-78
2022/04/17 04:00:01;;;;;;;3.97;1.80;;;6.80;90.40;;;;;;5093937;28;20076;-77
2022/04/17 04:02:29;;;;;;;2.97;1.80;;;6.70;90.90;;;;;;5093793;28;20562;-78
2022/04/17 04:04:55;;;;;;;3.07;1.87;;;6.80;91.10;;;;;;5093220;28;20024;-78
2022/04/17 04:07:20;;;;;;;4.23;1.70;;;6.70;90.80;;;;;;5092464;28;20027;-78
2022/04/17 04:09:46;;;;;;;3.23;1.80;;;6.70;90.70;;;;;;5093023;28;20528;-77
2022/04/17 04:12:12;;;;;;;3.93;2.37;;;6.60;90.50;;;;;;5093520;28;20024;-78
2022/04/17 04:14:38;;;;;;;3.93;2.00;;;6.60;90.70;;;;;;5092756;28;20457;-78
2022/04/17 04:17:04;;;;;;;3.90;2.13;;;6.60;91.40;;;;;;5092878;28;20062;-78
2022/04/17 04:19:30;;;;;;;2.87;1.80;;;6.60;91.60;;;;;;5092247;28;20087;-78
2022/04/17 04:21:55;;;;;;;2.53;1.67;;;6.60;91.90;;;;;;5092405;28;20035;-77
2022/04/17 04:24:23;;;;;;;2.73;1.80;;;6.60;92.40;;;;;;5092048;28;20067;-78
2022/04/17 04:28:33;;;;;;;4.87;1.80;;;6.50;92.90;;;;;;5093310;28;20477;-78
2022/04/17 04:29:35;;;;;;;5.40;2.07;;;6.40;92.80;;;;;;5092831;28;20153;-78
2022/04/17 04:32:01;;;;;;;3.60;2.40;;;6.40;93.10;;;;;;5092420;28;20130;-78
2022/04/17 04:34:27;;;;;;;3.03;1.97;;;6.40;93.30;;;;;;5091631;28;20028;-78
2022/04/17 04:36:53;;;;;;;3.03;1.83;;;6.30;93.50;;;;;;5092165;28;20111;-78
2022/04/17 04:39:19;;;;;;;5.10;2.30;;;6.30;93.70;;;;;;5091953;28;20028;-78
2022/04/17 04:41:45;;;;;;;5.63;2.00;;;6.30;93.60;;;;;;5092277;28;20056;-78
2022/04/17 04:44:11;;;;;;;3.50;1.77;;;6.30;94.10;;;;;;5093034;28;20103;-78
2022/04/17 04:46:38;;;;;;;4.53;1.90;;;6.20;93.50;;;;;;5092794;28;20056;-78
2022/04/17 04:51:49;;;;;;;3.77;2.00;;;6.30;94.00;;;;;;5093663;28;20059;-78
2022/04/17 04:54:15;;;;;;;3.97;2.10;;;6.30;93.90;;;;;;5092451;28;20028;-78
2022/04/17 04:56:40;;;;;;;3.10;1.80;;;6.30;93.20;;;;;;5091442;28;20050;-78
2022/04/17 04:59:06;;;;;;;3.27;1.90;;;6.30;93.80;;;;;;5093404;28;20050;-78
2022/04/17 05:01:31;;;;;;;3.47;2.43;;;6.30;94.40;;;;;;5092141;28;20256;-77
2022/04/17 05:03:57;;;;;;;3.63;2.10;;;6.30;95.00;;;;;;5092925;28;20523;-78
2022/04/17 05:06:23;;;;;;;4.10;2.20;;;6.20;94.60;;;;;;5090459;28;20107;-76
2022/04/17 05:08:48;;;;;;;2.57;1.93;;;6.20;95.00;;;;;;5091613;28;20519;-77
2022/04/17 05:11:14;;;;;;;5.13;2.17;;;6.20;94.50;;;;;;5091530;28;20058;-77
2022/04/17 05:13:40;;;;;;;3.93;2.23;;;6.20;94.60;;;;;;5092323;28;20024;-77
2022/04/17 05:16:06;;;;;;;4.73;1.70;;;6.20;95.10;;;;;;5093102;28;20032;-76
2022/04/17 05:18:32;;;;;;;4.07;2.10;;;6.20;94.80;;;;;;5092393;28;20034;-77
2022/04/17 05:20:58;;;;;;;3.07;2.10;;;6.30;95.10;;;;;;5091011;28;20529;-76
2022/04/17 05:23:29;;;;;;;4.70;2.20;;;6.20;95.10;;;;;;5090932;28;20028;-77
2022/04/17 05:26:00;;;;;;;2.90;1.93;;;6.30;95.20;;;;;;5091676;28;20028;-77
2022/04/17 05:28:27;;;;;;;4.90;2.10;;;6.20;95.10;;;;;;5091093;28;20351;-76
2022/04/17 05:30:53;;;;;;;2.77;1.93;;;6.30;95.70;;;;;;5091500;28;20028;-76
2022/04/17 05:33:20;;;;;;;5.13;2.20;;;6.30;95.10;;;;;;5091094;28;20020;-77
2022/04/17 05:35:47;;;;;;;3.63;2.10;;;6.30;95.00;;;;;;5092809;28;20031;-76
2022/04/17 05:38:13;;;;;;;3.87;2.20;;;6.30;94.80;;;;;;5093154;28;20020;-77
2022/04/17 05:40:41;;;;;;;3.63;2.10;;;6.40;95.10;;;;;;5095435;28;20127;-76
2022/04/17 05:43:07;;;;;;;4.33;1.93;;;6.40;95.10;;;;;;5096161;28;20027;-76
2022/04/17 05:45:33;;;;;;;4.70;2.23;;;6.40;95.20;;;;;;5094705;28;20476;-76
2022/04/17 05:48:00;;;;;;;3.73;1.80;;;6.50;95.20;;;;;;5095042;28;20435;-76
2022/04/17 05:50:27;;;;;;;3.57;2.07;;;6.50;94.70;;;;;;5094783;28;20083;-76
2022/04/17 05:52:53;;;;;;;5.90;2.37;;;6.50;94.60;;;;;;5096369;28;20077;-76
2022/04/17 05:55:19;;;;;;;5.17;2.47;;;6.50;94.60;;;;;;5095858;28;20027;-76
2022/04/17 05:57:45;;;;;;;3.37;2.20;;;6.50;94.20;;;;;;5094737;28;20453;-76
2022/04/17 06:00:11;;;;;;;4.43;2.60;;;6.60;94.50;;;;;;5095134;28;20123;-76
2022/04/17 06:02:41;;;;;;;5.43;2.23;;;6.60;94.30;;;;;;5094647;28;20034;-77
2022/04/17 06:05:07;;;;;;;4.37;1.73;;;6.60;94.10;;;;;;5096317;28;20099;-76
2022/04/17 06:07:33;;;;;;;3.80;2.30;;;6.70;93.80;;;;;;5095310;28;20186;-76
2022/04/17 06:10:03;;;;;;;3.50;2.27;;;6.70;93.60;;;;;;5094730;28;20575;-76
2022/04/17 06:12:29;;;;;;;4.57;2.30;;;6.70;94.20;;;;;;5093788;28;20032;-76
2022/04/17 06:14:55;;;;;;;3.97;2.30;;;6.80;94.00;;;;;;5094129;28;20024;-76
2022/04/17 06:17:20;;;;;;;4.10;2.43;;;6.80;93.80;;;;;;5094996;28;20028;-77
2022/04/17 06:19:46;;;;;;;4.23;2.23;;;6.90;93.00;;;;;;5095777;28;20035;-75
2022/04/17 06:22:12;;;;;;;3.40;2.10;;;6.90;93.80;;;;;;5094678;28;20030;-76
2022/04/17 06:24:37;;;;;;;3.50;2.50;;;7.00;93.40;;;;;;5095240;28;20031;-76
2022/04/17 06:27:03;;;;;;;3.60;2.40;;;7.00;93.30;;;;;;5094622;28;20051;-76
2022/04/17 06:29:29;;;;;;;4.23;2.37;;;7.10;93.70;;;;;;5088434;28;20105;-76
2022/04/17 06:31:55;;;;;;;5.70;2.17;;;7.10;94.10;;;;;;5094563;28;20376;-76
2022/04/17 06:34:20;;;;;;;8.48;2.45;;;7.20;94.30;;;;;;5091501;28;20437;-76
2022/04/17 06:36:46;;;;;;;5.87;3.03;;;7.20;93.20;;;;;;5093145;28;20051;-76
2022/04/17 06:39:11;;;;;;;2.88;2.10;;;7.30;93.00;;;;;;5093030;28;20048;-76
2022/04/17 06:41:37;;;;;;;3.88;2.10;;;7.30;92.50;;;;;;5092030;28;20030;-76
2022/04/17 06:44:03;;;;;;;4.93;2.00;;;7.40;92.60;;;;;;5093268;28;20320;-76
2022/04/17 06:46:28;;;;;;;5.38;2.10;;;7.40;92.60;;;;;;5092664;28;20119;-76
2022/04/17 06:48:54;;;;;;;6.18;2.08;;;7.50;92.10;;;;;;5091964;28;20020;-76
2022/04/17 06:51:24;;;;;;;3.80;2.00;;;7.60;91.50;;;;;;5092019;28;20032;-77
2022/04/17 06:53:53;;;;;;;3.70;2.00;;;7.60;90.80;;;;;;5092783;28;20066;-76
2022/04/17 06:56:18;;;;;;;3.57;1.67;;;7.70;90.10;;;;;;5093559;28;20669;-77
2022/04/17 06:58:48;;;;;;;3.33;1.77;;;7.70;90.10;;;;;;5093996;28;20056;-76
2022/04/17 07:01:17;;;;;;;2.67;2.10;;;7.80;88.70;;;;;;5092956;28;20037;-76
2022/04/17 07:03:46;;;;;;;5.05;2.05;;;7.90;88.60;;;;;;5092945;28;20354;-77
2022/04/17 07:06:12;;;;;;;2.78;1.60;;;7.90;87.80;;;;;;5093928;28;20457;-77
2022/04/17 07:08:38;;;;;;;7.57;3.33;;;8.00;87.00;;;;;;5092475;28;20031;-75
2022/04/17 07:11:04;;;;;;;5.35;2.90;;;8.00;90.30;;;;;;5092722;28;20724;-76
2022/04/17 07:13:30;;;;;;;3.05;1.98;;;8.10;87.20;;;;;;5092091;28;20551;-76
2022/04/17 07:15:56;;;;;;;4.32;2.30;;;8.20;86.60;;;;;;5092433;28;20050;-75
2022/04/17 07:18:22;;;;;;;2.22;1.73;;;8.20;85.50;;;;;;5091819;28;20036;-76
2022/04/17 07:20:48;;;;;;;2.88;1.70;;;8.30;86.20;;;;;;5092199;28;20048;-76
2022/04/17 07:23:14;;;;;;;3.42;1.92;;;8.30;85.80;;;;;;5092307;28;20115;-76
2022/04/17 07:25:41;;;;;;;3.30;1.80;;;8.40;85.50;;;;;;5092689;28;20043;-76
2022/04/17 07:28:14;;;;;;;3.40;1.65;;;8.40;86.40;;;;;;5091767;28;20773;-76
2022/04/17 07:30:40;;;;;;;3.13;1.80;;;8.50;84.50;;;;;;5071177;28;20066;-76
2022/04/17 07:33:05;;;;;;;3.15;1.70;;;8.60;84.30;;;;;;5071281;28;20105;-76
2022/04/17 07:35:31;;;;;;;6.57;1.60;;;8.60;85.50;;;;;;5081488;28;20030;-76
2022/04/17 07:38:02;;;;;;;3.38;1.80;;;8.60;84.20;;;;;;5092971;28;20024;-76
2022/04/17 07:40:33;;;;;;;3.13;1.70;;;8.70;84.40;;;;;;5091059;28;20036;-76
2022/04/17 07:43:01;;;;;;;2.45;1.70;;;8.80;81.50;;;;;;5091430;28;20621;-76
2022/04/17 07:45:28;;;;;;;3.15;1.65;;;8.80;82.00;;;;;;5091700;28;20069;-76
2022/04/17 07:47:53;;;;;;;4.15;1.70;;;8.80;80.80;;;;;;5089745;28;20051;-76
2022/04/17 07:50:24;;;;;;;3.22;1.65;;;8.90;82.00;;;;;;5091306;28;20032;-77
2022/04/17 07:52:51;;;;;;;2.47;1.30;;;9.10;81.00;;;;;;5091770;28;20044;-76
2022/04/17 07:55:17;;;;;;;2.58;1.50;;;9.10;78.30;;;;;;5091276;28;20557;-77
2022/04/17 07:58:34;;;;;;;2.65;1.40;;;9.10;78.90;;;;;;5091062;28;20497;-77
2022/04/17 08:00:44;;;;;;;4.57;1.75;;;9.20;79.30;;;;;;5083587;28;20040;-76
2022/04/17 08:03:21;;;;;;;4.90;1.33;;;9.20;81.90;;;;;;5091857;28;20826;-77
2022/04/17 08:05:47;;;;;;;2.65;1.55;;;9.30;79.80;;;;;;5091624;28;20078;-76
2022/04/17 08:08:13;;;;;;;3.20;1.70;;;9.30;77.90;;;;;;5092457;28;20376;-75
2022/04/17 08:10:39;;;;;;;4.22;2.13;;;9.40;77.10;;;;;;5091678;28;20020;-76
2022/04/17 08:13:05;;;;;;;3.65;1.45;;;9.60;76.40;;;;;;5091394;28;20488;-77
2022/04/17 08:15:31;;;;;;;3.20;1.55;;;9.70;75.60;;;;;;5090992;28;20056;-76
2022/04/17 08:17:57;;;;;;;2.25;1.17;;;9.70;72.50;;;;;;5091390;28;20071;-77
2022/04/17 08:20:23;;;;;;;3.47;1.30;;;9.80;71.50;;;;;;5090872;28;20493;-76
2022/04/17 08:22:48;;;;;;;2.20;1.40;;;9.80;69.50;;;;;;5091255;28;20047;-77
2022/04/17 08:25:14;;;;;;;2.72;1.48;;;9.90;68.20;;;;;;5090630;28;20093;-76
2022/04/17 08:27:51;;;;;;;2.53;1.35;;;9.90;67.80;;;;;;5084866;28;20031;-76
2022/04/17 08:30:21;;;;;;;2.63;1.42;;;10.00;69.50;;;;;;5070609;28;20051;-77
2022/04/17 08:32:47;;;;;;;2.00;1.25;;;10.00;69.50;;;;;;5074535;28;20751;-77
2022/04/17 08:35:13;;;;;;;2.60;1.20;;;10.10;67.60;;;;;;5090668;28;20050;-77
2022/04/17 08:37:39;;;;;;;3.97;1.45;;;10.20;68.80;;;;;;5090650;28;20734;-76
2022/04/17 08:40:05;;;;;;;3.45;1.50;;;10.20;67.20;;;;;;5090663;28;20115;-76
2022/04/17 08:42:32;;;;;;;2.65;1.20;;;10.30;68.20;;;;;;5090974;28;20116;-76
2022/04/17 08:44:58;;;;;;;1.95;1.25;;;10.40;67.10;;;;;;5090141;28;20028;-76
2022/04/17 08:47:25;;;;;;;2.08;1.33;;;10.40;66.70;;;;;;5088507;28;20479;-77
2022/04/17 08:49:54;;;;;;;1.65;0.90;;;10.50;66.50;;;;;;5089927;28;20372;-77
2022/04/17 08:52:22;;;;;;;1.40;0.80;;;10.60;66.60;;;;;;5088026;28;20027;-78
2022/04/17 08:54:49;;;;;;;2.33;0.90;;;10.70;64.10;;;;;;5088815;28;20149;-77
2022/04/17 08:57:16;;;;;;;2.95;1.02;;;10.80;64.00;;;;;;5084664;28;20162;-76
2022/04/17 08:59:42;;;;;;;3.15;1.08;;;10.80;62.70;;;;;;5068558;28;20089;-76
2022/04/17 09:02:12;;;;;;;2.88;1.23;;;10.80;63.80;;;;;;5069667;28;20044;-76
2022/04/17 09:04:38;;;;;;;2.38;1.10;;;10.90;62.50;;;;;;5073431;28;20524;-76
2022/04/17 09:07:10;;;;;;;1.23;1.02;;;11.00;61.30;;;;;;5090294;28;20040;-76
2022/04/17 09:09:52;;;;;;;4.05;1.30;;;11.00;60.10;;;;;;5090444;28;20028;-76
2022/04/17 09:12:23;;;;;;;1.77;0.98;;;11.10;61.50;;;;;;5090618;28;20381;-76
2022/04/17 09:14:48;;;;;;;1.20;0.90;;;11.10;59.70;;;;;;5093654;28;20024;-76
2022/04/17 09:17:15;;;;;;;2.45;1.08;;;11.20;58.10;;;;;;5092225;28;20024;-76
2022/04/17 09:19:42;;;;;;;1.58;0.70;;;11.10;59.10;;;;;;5091948;28;20631;-76
2022/04/17 09:22:09;;;;;;;1.67;0.93;;;11.20;60.00;;;;;;5092020;28;20028;-76
2022/04/17 09:24:39;;;;;;;2.30;0.85;;;11.20;61.20;;;;;;5091422;28;20020;-76
2022/04/17 09:27:07;;;;;;;2.70;1.20;;;11.30;60.30;;;;;;5090610;28;20032;-76
2022/04/17 09:29:38;;;;;;;1.88;1.00;;;11.40;61.90;;;;;;5084187;28;20036;-76
2022/04/17 09:32:09;;;;;;;1.15;0.80;;;11.40;58.30;;;;;;5093923;28;20036;-76
2022/04/17 09:35:01;;;;;;;1.73;1.08;;;11.50;61.20;;;;;;5093166;28;20020;-76
2022/04/17 09:37:29;;;;;;;1.98;0.90;;;11.50;60.30;;;;;;5088579;28;20067;-77
2022/04/17 09:40:06;;;;;;;0.90;0.70;;;11.60;62.30;;;;;;5093099;28;20032;-76
2022/04/17 09:42:32;;;;;;;1.45;0.70;;;11.70;61.00;;;;;;5092522;28;20047;-76
2022/04/17 09:45:01;;;;;;;2.38;0.93;;;11.80;59.00;;;;;;5092959;28;20468;-77
2022/04/17 09:47:28;;;;;;;2.58;0.90;;;11.90;58.60;;;;;;5094055;28;20149;-76
2022/04/17 09:49:58;;;;;;;4.28;1.10;;;11.90;59.30;;;;;;5095069;28;20024;-77
2022/04/17 09:52:32;;;;;;;3.20;1.48;;;12.00;59.30;;;;;;5092982;28;20024;-78
2022/04/17 09:55:03;;;;;;;3.58;1.08;;;12.00;59.30;;;;;;5095393;28;20031;-76
2022/04/17 09:57:33;;;;;;;1.23;0.93;;;12.10;58.60;;;;;;5092950;28;20059;-77
2022/04/17 10:00:18;;;;;;;2.03;1.13;;;12.20;58.60;;;;;;5093969;28;20028;-77
2022/04/17 10:02:47;;;;;;;1.40;0.80;;;12.10;60.90;;;;;;5076984;28;20031;-77
2022/04/17 10:05:15;;;;;;;1.65;0.90;;;12.20;61.00;;;;;;5093053;28;20032;-77
2022/04/17 10:07:46;;;;;;;2.45;0.82;;;12.20;60.00;;;;;;5092924;28;20020;-77
2022/04/17 10:10:13;;;;;;;1.83;0.93;;;12.20;58.30;;;;;;5092990;28;20024;-76
2022/04/17 10:12:40;;;;;;;1.60;0.90;;;12.20;60.10;;;;;;5092972;28;20100;-77
2022/04/17 10:15:07;;;;;;;3.08;0.80;;;12.30;59.60;;;;;;5094315;28;20465;-76
2022/04/17 10:17:34;;;;;;;1.55;0.80;;;12.30;58.50;;;;;;5093833;28;20020;-77
2022/04/17 10:20:06;;;;;;;1.23;0.85;;;12.30;58.70;;;;;;5093067;28;20077;-77
2022/04/17 10:22:33;;;;;;;3.03;1.00;;;12.30;58.00;;;;;;5093095;28;20031;-77
2022/04/17 10:24:59;;;;;;;1.52;0.95;;;12.30;56.50;;;;;;5093052;28;20036;-77
2022/04/17 10:27:28;;;;;;;2.30;0.90;;;12.50;59.60;;;;;;5094046;28;20054;-76
2022/04/17 10:30:03;;;;;;;1.33;0.75;;;12.60;59.70;;;;;;5093339;28;20020;-77
2022/04/17 10:32:31;;;;;;;1.50;0.90;;;12.60;58.30;;;;;;5093004;28;20052;-76
2022/04/17 10:35:26;;;;;;;1.80;0.80;;;12.80;57.90;;;;;;5092853;28;20024;-76
2022/04/17 10:38:01;;;;;;;1.55;0.98;;;12.90;57.50;;;;;;5092996;28;20115;-76
2022/04/17 10:40:27;;;;;;;2.33;1.15;;;13.00;59.10;;;;;;5091778;28;20481;-76
2022/04/17 10:42:59;;;;;;;2.83;1.13;;;13.00;59.30;;;;;;5093553;28;20509;-76
2022/04/17 10:45:26;;;;;;;3.85;1.45;;;13.00;58.20;;;;;;5091814;28;20025;-77
2022/04/17 10:48:11;;;;;;;2.92;1.30;;;13.00;57.10;;;;;;5092439;28;20035;-76
2022/04/17 10:50:52;;;;;;;3.40;1.40;;;13.10;55.90;;;;;;5075308;28;20126;-76
2022/04/17 10:53:31;;;;;;;1.88;1.10;;;13.10;60.40;;;;;;5091414;28;20111;-77
2022/04/17 10:56:14;;;;;;;5.20;1.58;;;13.20;55.70;;;;;;5091627;28;20181;-76
2022/04/17 10:58:49;;;;;;;2.90;1.05;;;13.30;55.50;;;;;;5084026;28;20028;-76
2022/04/17 11:01:15;;;;;;;2.47;1.00;;;13.40;59.30;;;;;;5090589;28;20039;-76
2022/04/17 11:03:52;;;;;;;2.30;0.93;;;13.30;54.50;;;;;;5092381;28;20028;-77
2022/04/17 11:06:31;;;;;;;1.90;0.98;;;13.30;55.30;;;;;;5092729;28;20016;-77
2022/04/17 11:09:09;;;;;;;1.65;0.95;;;13.40;56.20;;;;;;5090691;28;20024;-77
2022/04/17 11:11:37;;;;;;;2.20;0.90;;;13.50;58.20;;;;;;5090100;28;20081;-77
2022/04/17 11:14:17;;;;;;;3.80;1.02;;;13.60;59.90;;;;;;5092323;28;20020;-76
2022/04/17 11:16:56;;;;;;;1.33;0.85;;;13.80;58.80;;;;;;5071945;28;20538;-77
2022/04/17 11:19:25;;;;;;;1.98;1.00;;;13.70;55.10;;;;;;5072555;28;20020;-76
2022/04/17 11:21:53;;;;;;;2.05;0.80;;;13.80;54.90;;;;;;5085383;28;20067;-76
2022/04/17 11:24:20;;;;;;;2.10;0.60;;;13.80;54.20;;;;;;5092303;28;20032;-76
2022/04/17 11:26:52;;;;;;;1.50;0.90;;;13.90;55.20;;;;;;5091429;28;20044;-77
2022/04/17 11:29:33;;;;;;;2.47;0.80;;;14.00;56.60;;;;;;5091493;28;20038;-76
2022/04/17 11:31:58;;;;;;;1.85;1.20;;;14.00;55.30;;;;;;5092920;28;20028;-76
2022/04/17 11:34:24;;;;;;;1.00;0.65;;;14.10;54.40;;;;;;5092486;28;20031;-78
2022/04/17 11:36:50;;;;;;;2.65;0.82;;;14.20;55.90;;;;;;5092862;28;20447;-77
2022/04/17 11:39:26;;;;;;;1.10;0.80;;;14.30;55.90;;;;;;5087352;28;20070;-77
2022/04/17 11:41:52;;;;;;;3.38;1.10;;;14.30;54.10;;;;;;5090168;28;20122;-77
2022/04/17 11:44:18;;;;;;;3.80;0.93;;;14.40;55.30;;;;;;5092425;28;20432;-77
2022/04/17 11:46:43;;;;;;;2.92;0.98;;;14.50;55.20;;;;;;5091478;28;20078;-76
2022/04/17 11:49:09;;;;;;;2.50;0.90;;;14.60;54.50;;;;;;5089231;28;20115;-76
2022/04/17 11:51:44;;;;;;;1.65;1.10;;;14.70;58.00;;;;;;5090014;28;20087;-76
2022/04/17 11:54:32;;;;;;;3.78;1.00;;;14.90;56.20;;;;;;5092232;28;20028;-79
2022/04/17 11:56:58;;;;;;;1.13;0.80;;;14.90;54.60;;;;;;5092049;28;20120;-77
2022/04/17 11:59:24;;;;;;;2.50;0.90;;;15.10;54.80;;;;;;5090884;28;20111;-77
2022/04/17 12:02:09;;;;;;;1.60;0.73;;;15.20;53.60;;;;;;5091134;28;20556;-77
2022/04/17 12:04:36;;;;;;;3.72;0.80;;;15.30;55.20;;;;;;5088920;28;20028;-78
2022/04/17 12:07:02;;;;;;;2.30;0.90;;;15.40;53.80;;;;;;5088990;28;20036;-78
2022/04/17 12:09:28;;;;;;;2.70;0.90;;;15.50;56.30;;;;;;5082249;28;20020;-78
2022/04/17 12:11:53;;;;;;;2.78;1.00;;;15.60;54.80;;;;;;5090140;28;20366;-78
2022/04/17 12:14:29;;;;;;;1.98;1.00;;;15.80;54.60;;;;;;5090044;28;20057;-78
2022/04/17 12:16:55;;;;;;;2.83;0.80;;;15.80;52.40;;;;;;5089568;28;20048;-77
2022/04/17 12:19:20;;;;;;;4.00;1.13;;;15.90;52.20;;;;;;5090671;28;20024;-78
2022/04/17 12:21:47;;;;;;;1.80;1.25;;;16.00;54.90;;;;;;5092029;28;20044;-77
2022/04/17 12:24:13;;;;;;;2.65;1.10;;;16.20;50.20;;;;;;5092469;28;20020;-78
2022/04/17 12:26:40;;;;;;;1.85;0.90;;;16.20;49.10;;;;;;5090527;28;20082;-78
2022/04/17 12:29:06;;;;;;;1.55;0.98;;;16.40;48.60;;;;;;5091087;28;20431;-78
2022/04/17 12:31:33;;;;;;;1.08;0.70;;;16.50;48.00;;;;;;5090665;28;20082;-78
2022/04/17 12:34:15;;;;;;;1.95;1.20;;;16.60;49.90;;;;;;5091123;28;20032;-78
2022/04/17 12:36:42;;;;;;;;;;;16.90;46.80;;;;;;5089720;28;20028;-84
2022/04/17 12:39:08;;;;;;;2.00;0.88;;;17.00;47.40;;;;;;5081013;28;19909;-82
2022/04/17 12:41:40;;;;;;;2.08;0.77;;;17.00;46.00;;;;;;5068918;28;20493;-79
2022/04/17 12:44:06;;;;;;;1.42;0.70;;;17.20;46.30;;;;;;5069268;28;20075;-79
2022/04/17 12:46:35;;;;;;;4.05;0.85;;;17.40;48.70;;;;;;5068787;28;20441;-79
2022/04/17 12:49:06;;;;;;;1.00;0.68;;;17.50;46.90;;;;;;5071086;28;20032;-79
2022/04/17 12:51:32;;;;;;;2.38;0.95;;;17.70;47.30;;;;;;5069324;28;20048;-81
2022/04/17 12:53:57;;;;;;;2.47;0.60;;;17.90;49.50;;;;;;5070561;28;20075;-81
2022/04/17 12:56:27;;;;;;;2.17;0.98;;;18.10;47.90;;;;;;5069066;28;20052;-82
2022/04/17 12:59:02;;;;;;;3.42;0.60;;;18.30;47.00;;;;;;5068847;28;20086;-82
2022/04/17 13:01:30;;;;;;;1.88;0.80;;;18.50;45.50;;;;;;5068690;28;20044;-83
2022/04/17 13:04:23;;;;;;;1.88;0.63;;;18.50;42.60;;;;;;5070269;28;20060;-79
2022/04/17 13:07:07;;;;;;;2.03;0.63;;;18.60;42.10;;;;;;5070539;28;20112;-79